Sycamore, Illinois
Current Conditions -  °F | °C
As of 11:15 AM on Thursday 27 Nov 2014 (Local Time) from KDKB Reporting Station
Light Snow Light Snow  
Wind Chill: 10°   Ceiling: 2000
Heat Index: 23°   Visibility: 10mi
Dew Point: 16°   Wind: 15mph
Humidity: 76%   Direction: 320°NW
Pressure: 30.35"   Gusts: 21mph
Location:  41.99°N, 88.68°W
Report Text: KDKB 271715Z AUTO 32013G18KT 10SM -SN BKN020 OVC024 M05/M09 A3035 RMK AO2 T10511088
Loading
Personal Weather Stations






























Interactive Weather Map New forecast layout! Learn more

10-Day Weather Forecast

Advertisements
Track Severe Weather on mobile